sensor_id;sensor_type;location;lat;lon;timestamp;P1;durP1;ratioP1;P2;durP2;ratioP2
52898;SDS011;38763;53.096;6.062;2022-07-29T00:02:09;3.90;;;1.30;;
52898;SDS011;38763;53.096;6.062;2022-07-29T00:04:35;3.08;;;1.33;;
52898;SDS011;38763;53.096;6.062;2022-07-29T00:07:01;3.45;;;1.45;;
52898;SDS011;38763;53.096;6.062;2022-07-29T00:09:28;3.58;;;1.40;;
52898;SDS011;38763;53.096;6.062;2022-07-29T00:11:53;5.00;;;1.50;;
52898;SDS011;38763;53.096;6.062;2022-07-29T00:14:21;3.42;;;1.42;;
52898;SDS011;38763;53.096;6.062;2022-07-29T00:16:47;4.28;;;1.40;;
52898;SDS011;38763;53.096;6.062;2022-07-29T00:19:13;2.88;;;1.35;;
52898;SDS011;38763;53.096;6.062;2022-07-29T00:21:38;3.95;;;1.40;;
52898;SDS011;38763;53.096;6.062;2022-07-29T00:24:04;4.15;;;1.48;;
52898;SDS011;38763;53.096;6.062;2022-07-29T00:26:30;4.60;;;1.30;;
52898;SDS011;38763;53.096;6.062;2022-07-29T00:29:00;4.03;;;1.30;;
52898;SDS011;38763;53.096;6.062;2022-07-29T00:31:27;6.95;;;1.40;;
52898;SDS011;38763;53.096;6.062;2022-07-29T00:33:53;2.70;;;1.10;;
52898;SDS011;38763;53.096;6.062;2022-07-29T00:36:19;2.75;;;1.23;;
52898;SDS011;38763;53.096;6.062;2022-07-29T00:38:46;4.13;;;1.35;;
52898;SDS011;38763;53.096;6.062;2022-07-29T00:41:12;5.10;;;1.30;;
52898;SDS011;38763;53.096;6.062;2022-07-29T00:43:38;4.13;;;1.55;;
52898;SDS011;38763;53.096;6.062;2022-07-29T00:46:04;3.17;;;1.25;;
52898;SDS011;38763;53.096;6.062;2022-07-29T00:48:29;3.35;;;1.20;;
52898;SDS011;38763;53.096;6.062;2022-07-29T00:50:58;3.50;;;1.40;;
52898;SDS011;38763;53.096;6.062;2022-07-29T00:53:26;3.90;;;1.10;;
52898;SDS011;38763;53.096;6.062;2022-07-29T00:55:55;4.80;;;1.30;;
52898;SDS011;38763;53.096;6.062;2022-07-29T00:58:21;4.75;;;1.30;;
52898;SDS011;38763;53.096;6.062;2022-07-29T01:00:47;3.63;;;1.40;;
52898;SDS011;38763;53.096;6.062;2022-07-29T01:03:13;6.72;;;1.48;;
52898;SDS011;38763;53.096;6.062;2022-07-29T01:05:39;3.58;;;1.45;;
52898;SDS011;38763;53.096;6.062;2022-07-29T01:08:06;7.70;;;1.60;;
52898;SDS011;38763;53.096;6.062;2022-07-29T01:10:32;4.32;;;1.45;;
52898;SDS011;38763;53.096;6.062;2022-07-29T01:13:02;6.95;;;1.45;;
52898;SDS011;38763;53.096;6.062;2022-07-29T01:15:28;4.22;;;1.70;;
52898;SDS011;38763;53.096;6.062;2022-07-29T01:18:01;2.88;;;1.40;;
52898;SDS011;38763;53.096;6.062;2022-07-29T01:29:25;6.63;;;1.60;;
52898;SDS011;38763;53.096;6.062;2022-07-29T01:32:07;3.78;;;1.38;;
52898;SDS011;38763;53.096;6.062;2022-07-29T01:34:41;4.72;;;1.50;;
52898;SDS011;38763;53.096;6.062;2022-07-29T01:39:47;5.78;;;2.05;;
52898;SDS011;38763;53.096;6.062;2022-07-29T01:44:53;5.88;;;1.60;;
52898;SDS011;38763;53.096;6.062;2022-07-29T01:50:36;5.05;;;1.77;;
52898;SDS011;38763;53.096;6.062;2022-07-29T01:53:34;5.82;;;1.83;;
52898;SDS011;38763;53.096;6.062;2022-07-29T01:56:07;4.43;;;1.58;;
52898;SDS011;38763;53.096;6.062;2022-07-29T01:58:35;3.88;;;1.50;;
52898;SDS011;38763;53.096;6.062;2022-07-29T02:01:03;4.90;;;1.90;;
52898;SDS011;38763;53.096;6.062;2022-07-29T02:03:31;4.60;;;1.60;;
52898;SDS011;38763;53.096;6.062;2022-07-29T02:05:58;6.28;;;1.95;;
52898;SDS011;38763;53.096;6.062;2022-07-29T02:08:28;6.05;;;1.67;;
52898;SDS011;38763;53.096;6.062;2022-07-29T02:10:55;4.35;;;1.67;;
52898;SDS011;38763;53.096;6.062;2022-07-29T02:13:22;6.63;;;1.80;;
52898;SDS011;38763;53.096;6.062;2022-07-29T02:15:51;5.13;;;1.80;;
52898;SDS011;38763;53.096;6.062;2022-07-29T02:18:18;6.85;;;2.10;;
52898;SDS011;38763;53.096;6.062;2022-07-29T02:20:46;5.30;;;1.98;;
52898;SDS011;38763;53.096;6.062;2022-07-29T02:23:14;3.10;;;1.60;;
52898;SDS011;38763;53.096;6.062;2022-07-29T02:25:50;5.32;;;1.55;;
52898;SDS011;38763;53.096;6.062;2022-07-29T02:28:18;5.10;;;1.77;;
52898;SDS011;38763;53.096;6.062;2022-07-29T02:30:45;5.05;;;2.00;;
52898;SDS011;38763;53.096;6.062;2022-07-29T02:33:12;5.15;;;1.92;;
52898;SDS011;38763;53.096;6.062;2022-07-29T02:35:40;4.28;;;1.92;;
52898;SDS011;38763;53.096;6.062;2022-07-29T02:38:09;6.03;;;2.25;;
52898;SDS011;38763;53.096;6.062;2022-07-29T02:40:58;4.30;;;1.60;;
52898;SDS011;38763;53.096;6.062;2022-07-29T02:43:26;6.90;;;1.90;;
52898;SDS011;38763;53.096;6.062;2022-07-29T02:45:52;8.23;;;2.92;;
52898;SDS011;38763;53.096;6.062;2022-07-29T02:48:22;3.95;;;1.80;;
52898;SDS011;38763;53.096;6.062;2022-07-29T02:51:03;3.67;;;1.83;;
52898;SDS011;38763;53.096;6.062;2022-07-29T02:53:38;8.30;;;1.85;;
52898;SDS011;38763;53.096;6.062;2022-07-29T02:56:08;4.13;;;1.83;;
52898;SDS011;38763;53.096;6.062;2022-07-29T02:58:39;5.10;;;2.00;;
52898;SDS011;38763;53.096;6.062;2022-07-29T03:01:11;5.45;;;1.90;;
52898;SDS011;38763;53.096;6.062;2022-07-29T03:06:07;5.20;;;1.95;;
52898;SDS011;38763;53.096;6.062;2022-07-29T03:08:34;8.13;;;2.17;;
52898;SDS011;38763;53.096;6.062;2022-07-29T03:11:00;5.70;;;2.20;;
52898;SDS011;38763;53.096;6.062;2022-07-29T03:13:27;3.83;;;1.80;;
52898;SDS011;38763;53.096;6.062;2022-07-29T03:15:54;3.53;;;1.88;;
52898;SDS011;38763;53.096;6.062;2022-07-29T03:18:21;5.55;;;1.90;;
52898;SDS011;38763;53.096;6.062;2022-07-29T03:20:47;3.35;;;1.90;;
52898;SDS011;38763;53.096;6.062;2022-07-29T03:23:12;5.57;;;1.88;;
52898;SDS011;38763;53.096;6.062;2022-07-29T03:25:44;6.20;;;1.80;;
52898;SDS011;38763;53.096;6.062;2022-07-29T03:28:10;4.63;;;2.00;;
52898;SDS011;38763;53.096;6.062;2022-07-29T03:30:36;7.28;;;1.98;;
52898;SDS011;38763;53.096;6.062;2022-07-29T03:33:02;6.88;;;1.77;;
52898;SDS011;38763;53.096;6.062;2022-07-29T03:35:27;4.78;;;2.03;;
52898;SDS011;38763;53.096;6.062;2022-07-29T03:37:53;5.40;;;1.85;;
52898;SDS011;38763;53.096;6.062;2022-07-29T03:40:35;5.35;;;1.73;;
52898;SDS011;38763;53.096;6.062;2022-07-29T03:43:21;5.30;;;1.55;;
52898;SDS011;38763;53.096;6.062;2022-07-29T03:45:50;5.20;;;2.05;;
52898;SDS011;38763;53.096;6.062;2022-07-29T03:48:19;4.78;;;1.55;;
52898;SDS011;38763;53.096;6.062;2022-07-29T03:50:46;3.90;;;1.70;;
52898;SDS011;38763;53.096;6.062;2022-07-29T03:53:13;4.15;;;1.77;;
52898;SDS011;38763;53.096;6.062;2022-07-29T03:55:43;3.42;;;1.67;;
52898;SDS011;38763;53.096;6.062;2022-07-29T03:58:12;5.22;;;2.00;;
52898;SDS011;38763;53.096;6.062;2022-07-29T04:00:39;3.65;;;1.60;;
52898;SDS011;38763;53.096;6.062;2022-07-29T04:03:06;3.33;;;1.70;;
52898;SDS011;38763;53.096;6.062;2022-07-29T04:05:33;4.97;;;1.88;;
52898;SDS011;38763;53.096;6.062;2022-07-29T04:07:59;3.80;;;1.80;;
52898;SDS011;38763;53.096;6.062;2022-07-29T04:10:24;9.57;;;1.60;;
52898;SDS011;38763;53.096;6.062;2022-07-29T04:12:50;8.38;;;1.70;;
52898;SDS011;38763;53.096;6.062;2022-07-29T04:15:16;5.78;;;1.77;;
52898;SDS011;38763;53.096;6.062;2022-07-29T04:17:41;4.55;;;1.50;;
52898;SDS011;38763;53.096;6.062;2022-07-29T04:20:08;4.78;;;1.60;;
52898;SDS011;38763;53.096;6.062;2022-07-29T04:22:34;6.78;;;1.70;;
52898;SDS011;38763;53.096;6.062;2022-07-29T04:24:59;4.15;;;1.48;;
52898;SDS011;38763;53.096;6.062;2022-07-29T04:27:25;5.18;;;1.33;;
52898;SDS011;38763;53.096;6.062;2022-07-29T04:29:50;4.00;;;1.40;;
52898;SDS011;38763;53.096;6.062;2022-07-29T04:32:16;5.00;;;1.60;;
52898;SDS011;38763;53.096;6.062;2022-07-29T04:34:42;6.03;;;1.60;;
52898;SDS011;38763;53.096;6.062;2022-07-29T04:37:07;7.63;;;1.85;;
52898;SDS011;38763;53.096;6.062;2022-07-29T04:39:33;3.08;;;1.40;;
52898;SDS011;38763;53.096;6.062;2022-07-29T04:41:58;5.00;;;1.65;;
52898;SDS011;38763;53.096;6.062;2022-07-29T04:44:24;5.18;;;1.58;;
52898;SDS011;38763;53.096;6.062;2022-07-29T04:46:50;6.07;;;1.90;;
52898;SDS011;38763;53.096;6.062;2022-07-29T04:49:15;9.00;;;2.00;;
52898;SDS011;38763;53.096;6.062;2022-07-29T04:51:41;5.80;;;1.67;;
52898;SDS011;38763;53.096;6.062;2022-07-29T04:54:07;4.47;;;1.60;;
52898;SDS011;38763;53.096;6.062;2022-07-29T04:56:32;3.72;;;1.50;;
52898;SDS011;38763;53.096;6.062;2022-07-29T04:58:58;4.32;;;1.67;;
52898;SDS011;38763;53.096;6.062;2022-07-29T05:01:24;4.80;;;1.75;;
52898;SDS011;38763;53.096;6.062;2022-07-29T05:03:49;4.20;;;1.90;;
52898;SDS011;38763;53.096;6.062;2022-07-29T05:06:15;4.85;;;1.63;;
52898;SDS011;38763;53.096;6.062;2022-07-29T05:08:40;5.50;;;1.60;;
52898;SDS011;38763;53.096;6.062;2022-07-29T05:11:06;5.93;;;1.90;;
52898;SDS011;38763;53.096;6.062;2022-07-29T05:13:31;5.47;;;1.90;;
52898;SDS011;38763;53.096;6.062;2022-07-29T05:15:58;5.15;;;1.60;;
52898;SDS011;38763;53.096;6.062;2022-07-29T05:18:24;4.78;;;1.83;;
52898;SDS011;38763;53.096;6.062;2022-07-29T05:20:50;7.00;;;1.98;;
52898;SDS011;38763;53.096;6.062;2022-07-29T05:23:16;4.40;;;2.00;;
52898;SDS011;38763;53.096;6.062;2022-07-29T05:25:42;4.80;;;1.85;;
52898;SDS011;38763;53.096;6.062;2022-07-29T05:28:08;7.15;;;1.95;;
52898;SDS011;38763;53.096;6.062;2022-07-29T05:30:34;5.65;;;1.70;;
52898;SDS011;38763;53.096;6.062;2022-07-29T05:32:59;7.03;;;2.08;;
52898;SDS011;38763;53.096;6.062;2022-07-29T05:35:25;6.57;;;2.03;;
52898;SDS011;38763;53.096;6.062;2022-07-29T05:37:50;4.18;;;1.60;;
52898;SDS011;38763;53.096;6.062;2022-07-29T05:40:16;5.97;;;1.92;;
52898;SDS011;38763;53.096;6.062;2022-07-29T05:42:42;6.55;;;1.77;;
52898;SDS011;38763;53.096;6.062;2022-07-29T05:45:07;4.25;;;1.65;;
52898;SDS011;38763;53.096;6.062;2022-07-29T05:47:33;7.15;;;1.85;;
52898;SDS011;38763;53.096;6.062;2022-07-29T05:49:59;5.18;;;1.60;;
52898;SDS011;38763;53.096;6.062;2022-07-29T05:52:25;4.93;;;1.80;;
52898;SDS011;38763;53.096;6.062;2022-07-29T05:54:51;5.38;;;1.58;;
52898;SDS011;38763;53.096;6.062;2022-07-29T05:57:20;5.05;;;1.50;;
52898;SDS011;38763;53.096;6.062;2022-07-29T05:59:47;6.10;;;1.70;;
52898;SDS011;38763;53.096;6.062;2022-07-29T06:02:15;5.00;;;1.70;;
52898;SDS011;38763;53.096;6.062;2022-07-29T06:04:41;5.40;;;2.20;;
52898;SDS011;38763;53.096;6.062;2022-07-29T06:07:07;6.28;;;1.67;;
52898;SDS011;38763;53.096;6.062;2022-07-29T06:09:33;5.45;;;1.60;;
52898;SDS011;38763;53.096;6.062;2022-07-29T06:11:59;6.95;;;1.92;;
52898;SDS011;38763;53.096;6.062;2022-07-29T06:14:25;5.18;;;1.98;;
52898;SDS011;38763;53.096;6.062;2022-07-29T06:16:53;5.57;;;1.55;;
52898;SDS011;38763;53.096;6.062;2022-07-29T06:19:18;5.60;;;1.88;;
52898;SDS011;38763;53.096;6.062;2022-07-29T06:21:44;5.20;;;1.58;;
52898;SDS011;38763;53.096;6.062;2022-07-29T06:24:12;5.60;;;1.60;;
52898;SDS011;38763;53.096;6.062;2022-07-29T06:26:38;4.72;;;1.63;;
52898;SDS011;38763;53.096;6.062;2022-07-29T06:29:05;5.22;;;1.70;;
52898;SDS011;38763;53.096;6.062;2022-07-29T06:31:35;3.70;;;1.70;;
52898;SDS011;38763;53.096;6.062;2022-07-29T06:34:02;4.57;;;2.03;;
52898;SDS011;38763;53.096;6.062;2022-07-29T06:36:28;10.43;;;2.00;;
52898;SDS011;38763;53.096;6.062;2022-07-29T06:38:54;5.25;;;1.58;;
52898;SDS011;38763;53.096;6.062;2022-07-29T06:41:19;6.40;;;1.92;;
52898;SDS011;38763;53.096;6.062;2022-07-29T06:43:45;5.18;;;1.70;;
52898;SDS011;38763;53.096;6.062;2022-07-29T06:46:15;4.07;;;1.40;;
52898;SDS011;38763;53.096;6.062;2022-07-29T06:51:10;7.68;;;1.88;;
52898;SDS011;38763;53.096;6.062;2022-07-29T06:53:39;5.10;;;1.58;;
52898;SDS011;38763;53.096;6.062;2022-07-29T06:56:05;3.53;;;1.52;;
52898;SDS011;38763;53.096;6.062;2022-07-29T06:58:34;3.95;;;1.50;;
52898;SDS011;38763;53.096;6.062;2022-07-29T07:01:01;4.30;;;1.90;;
52898;SDS011;38763;53.096;6.062;2022-07-29T07:03:28;8.85;;;1.83;;
52898;SDS011;38763;53.096;6.062;2022-07-29T07:05:54;5.53;;;1.92;;
52898;SDS011;38763;53.096;6.062;2022-07-29T07:08:20;6.32;;;1.60;;
52898;SDS011;38763;53.096;6.062;2022-07-29T07:10:47;5.55;;;1.65;;
52898;SDS011;38763;53.096;6.062;2022-07-29T07:13:13;5.38;;;1.65;;
52898;SDS011;38763;53.096;6.062;2022-07-29T07:15:39;5.95;;;1.77;;
52898;SDS011;38763;53.096;6.062;2022-07-29T07:18:05;5.07;;;1.70;;
52898;SDS011;38763;53.096;6.062;2022-07-29T07:20:32;4.45;;;1.83;;
52898;SDS011;38763;53.096;6.062;2022-07-29T07:22:59;3.92;;;1.60;;
52898;SDS011;38763;53.096;6.062;2022-07-29T07:25:25;6.05;;;1.70;;
52898;SDS011;38763;53.096;6.062;2022-07-29T07:27:51;5.10;;;1.63;;
52898;SDS011;38763;53.096;6.062;2022-07-29T07:30:16;7.55;;;1.52;;
52898;SDS011;38763;53.096;6.062;2022-07-29T07:32:42;7.68;;;1.50;;
52898;SDS011;38763;53.096;6.062;2022-07-29T07:35:08;4.40;;;1.58;;
52898;SDS011;38763;53.096;6.062;2022-07-29T07:37:35;5.07;;;1.92;;
52898;SDS011;38763;53.096;6.062;2022-07-29T07:40:01;3.90;;;1.77;;
52898;SDS011;38763;53.096;6.062;2022-07-29T07:42:27;5.85;;;1.50;;
52898;SDS011;38763;53.096;6.062;2022-07-29T07:44:52;4.93;;;1.65;;
52898;SDS011;38763;53.096;6.062;2022-07-29T07:47:18;8.77;;;1.85;;
52898;SDS011;38763;53.096;6.062;2022-07-29T07:49:49;5.50;;;1.60;;
52898;SDS011;38763;53.096;6.062;2022-07-29T07:52:15;5.25;;;1.50;;
52898;SDS011;38763;53.096;6.062;2022-07-29T07:54:42;7.55;;;1.58;;
52898;SDS011;38763;53.096;6.062;2022-07-29T07:57:09;5.80;;;1.77;;
52898;SDS011;38763;53.096;6.062;2022-07-29T07:59:38;5.68;;;1.50;;
52898;SDS011;38763;53.096;6.062;2022-07-29T08:02:04;3.88;;;1.58;;
52898;SDS011;38763;53.096;6.062;2022-07-29T08:04:30;4.68;;;1.40;;
52898;SDS011;38763;53.096;6.062;2022-07-29T08:06:57;6.35;;;1.65;;
52898;SDS011;38763;53.096;6.062;2022-07-29T08:09:23;4.53;;;1.58;;
52898;SDS011;38763;53.096;6.062;2022-07-29T08:11:50;4.93;;;1.25;;
52898;SDS011;38763;53.096;6.062;2022-07-29T08:14:16;4.05;;;1.80;;
52898;SDS011;38763;53.096;6.062;2022-07-29T08:16:42;6.43;;;2.20;;
52898;SDS011;38763;53.096;6.062;2022-07-29T08:19:08;5.00;;;1.70;;
52898;SDS011;38763;53.096;6.062;2022-07-29T08:21:34;6.82;;;1.60;;
52898;SDS011;38763;53.096;6.062;2022-07-29T08:24:00;6.20;;;1.90;;
52898;SDS011;38763;53.096;6.062;2022-07-29T08:26:44;6.57;;;1.88;;
52898;SDS011;38763;53.096;6.062;2022-07-29T08:29:10;4.53;;;1.65;;
52898;SDS011;38763;53.096;6.062;2022-07-29T08:31:36;4.80;;;1.45;;
52898;SDS011;38763;53.096;6.062;2022-07-29T08:34:03;4.32;;;1.60;;
52898;SDS011;38763;53.096;6.062;2022-07-29T08:36:29;5.85;;;1.85;;
52898;SDS011;38763;53.096;6.062;2022-07-29T08:38:55;6.25;;;1.92;;
52898;SDS011;38763;53.096;6.062;2022-07-29T08:41:21;6.22;;;1.80;;
52898;SDS011;38763;53.096;6.062;2022-07-29T08:43:47;4.38;;;1.75;;
52898;SDS011;38763;53.096;6.062;2022-07-29T08:46:14;4.32;;;1.90;;
52898;SDS011;38763;53.096;6.062;2022-07-29T08:48:40;6.03;;;1.98;;
52898;SDS011;38763;53.096;6.062;2022-07-29T08:51:06;7.88;;;1.85;;
52898;SDS011;38763;53.096;6.062;2022-07-29T08:53:33;6.72;;;2.00;;
52898;SDS011;38763;53.096;6.062;2022-07-29T08:55:59;12.02;;;2.33;;
52898;SDS011;38763;53.096;6.062;2022-07-29T08:58:26;7.53;;;1.92;;
52898;SDS011;38763;53.096;6.062;2022-07-29T09:00:57;5.95;;;2.00;;
52898;SDS011;38763;53.096;6.062;2022-07-29T09:03:29;6.70;;;1.80;;
52898;SDS011;38763;53.096;6.062;2022-07-29T09:05:57;5.93;;;2.22;;
52898;SDS011;38763;53.096;6.062;2022-07-29T09:08:24;4.82;;;1.95;;
52898;SDS011;38763;53.096;6.062;2022-07-29T09:10:50;7.38;;;2.00;;
52898;SDS011;38763;53.096;6.062;2022-07-29T09:13:16;6.28;;;1.70;;
52898;SDS011;38763;53.096;6.062;2022-07-29T09:15:43;4.85;;;1.98;;
52898;SDS011;38763;53.096;6.062;2022-07-29T09:18:09;8.32;;;1.80;;
52898;SDS011;38763;53.096;6.062;2022-07-29T09:20:35;7.38;;;2.28;;
52898;SDS011;38763;53.096;6.062;2022-07-29T09:23:19;4.57;;;1.73;;
52898;SDS011;38763;53.096;6.062;2022-07-29T09:25:45;6.68;;;2.10;;
52898;SDS011;38763;53.096;6.062;2022-07-29T09:28:15;7.40;;;2.00;;
52898;SDS011;38763;53.096;6.062;2022-07-29T09:30:55;4.93;;;1.65;;
52898;SDS011;38763;53.096;6.062;2022-07-29T09:33:23;7.28;;;2.25;;
52898;SDS011;38763;53.096;6.062;2022-07-29T09:36:05;7.28;;;2.70;;
52898;SDS011;38763;53.096;6.062;2022-07-29T09:38:33;5.78;;;2.45;;
52898;SDS011;38763;53.096;6.062;2022-07-29T09:41:04;5.18;;;2.20;;
52898;SDS011;38763;53.096;6.062;2022-07-29T09:43:31;8.23;;;2.53;;
52898;SDS011;38763;53.096;6.062;2022-07-29T09:46:09;7.18;;;2.15;;
52898;SDS011;38763;53.096;6.062;2022-07-29T09:48:38;10.13;;;2.30;;
52898;SDS011;38763;53.096;6.062;2022-07-29T09:51:04;7.88;;;2.30;;
52898;SDS011;38763;53.096;6.062;2022-07-29T09:53:37;6.57;;;2.53;;
52898;SDS011;38763;53.096;6.062;2022-07-29T09:56:04;5.47;;;2.38;;
52898;SDS011;38763;53.096;6.062;2022-07-29T09:58:31;4.57;;;2.10;;
52898;SDS011;38763;53.096;6.062;2022-07-29T10:00:58;6.43;;;2.05;;
52898;SDS011;38763;53.096;6.062;2022-07-29T10:03:24;8.23;;;2.15;;
52898;SDS011;38763;53.096;6.062;2022-07-29T10:08:39;4.55;;;2.13;;
52898;SDS011;38763;53.096;6.062;2022-07-29T10:11:10;5.13;;;2.20;;
52898;SDS011;38763;53.096;6.062;2022-07-29T10:13:37;5.63;;;2.50;;
52898;SDS011;38763;53.096;6.062;2022-07-29T10:16:04;6.65;;;2.60;;
52898;SDS011;38763;53.096;6.062;2022-07-29T10:18:31;5.05;;;2.30;;
52898;SDS011;38763;53.096;6.062;2022-07-29T10:20:58;5.90;;;2.38;;
52898;SDS011;38763;53.096;6.062;2022-07-29T10:23:26;8.35;;;2.22;;
52898;SDS011;38763;53.096;6.062;2022-07-29T10:25:54;7.90;;;2.63;;
52898;SDS011;38763;53.096;6.062;2022-07-29T10:28:20;5.82;;;2.67;;
52898;SDS011;38763;53.096;6.062;2022-07-29T10:30:46;7.57;;;2.40;;
52898;SDS011;38763;53.096;6.062;2022-07-29T10:44:17;6.97;;;2.35;;
52898;SDS011;38763;53.096;6.062;2022-07-29T10:46:45;5.05;;;2.55;;
52898;SDS011;38763;53.096;6.062;2022-07-29T10:49:15;7.95;;;2.90;;
52898;SDS011;38763;53.096;6.062;2022-07-29T10:59:49;9.57;;;2.60;;
52898;SDS011;38763;53.096;6.062;2022-07-29T11:07:23;7.65;;;2.50;;
52898;SDS011;38763;53.096;6.062;2022-07-29T11:15:06;6.43;;;2.28;;
52898;SDS011;38763;53.096;6.062;2022-07-29T11:23:18;8.48;;;2.78;;
52898;SDS011;38763;53.096;6.062;2022-07-29T11:28:50;5.97;;;2.30;;
52898;SDS011;38763;53.096;6.062;2022-07-29T11:31:30;8.95;;;2.65;;
52898;SDS011;38763;53.096;6.062;2022-07-29T11:39:43;6.53;;;2.42;;
52898;SDS011;38763;53.096;6.062;2022-07-29T11:50:15;6.88;;;2.13;;
52898;SDS011;38763;53.096;6.062;2022-07-29T11:52:54;6.93;;;2.05;;
52898;SDS011;38763;53.096;6.062;2022-07-29T11:55:20;6.95;;;2.55;;
52898;SDS011;38763;53.096;6.062;2022-07-29T11:57:54;6.35;;;2.35;;
52898;SDS011;38763;53.096;6.062;2022-07-29T12:02:46;7.65;;;2.20;;
52898;SDS011;38763;53.096;6.062;2022-07-29T12:05:12;6.95;;;2.22;;
52898;SDS011;38763;53.096;6.062;2022-07-29T12:07:38;10.18;;;2.25;;
52898;SDS011;38763;53.096;6.062;2022-07-29T12:10:05;4.70;;;2.03;;
52898;SDS011;38763;53.096;6.062;2022-07-29T12:12:31;7.55;;;2.00;;
52898;SDS011;38763;53.096;6.062;2022-07-29T12:14:58;5.15;;;2.42;;
52898;SDS011;38763;53.096;6.062;2022-07-29T12:17:34;8.73;;;2.40;;
52898;SDS011;38763;53.096;6.062;2022-07-29T12:20:01;7.50;;;2.35;;
52898;SDS011;38763;53.096;6.062;2022-07-29T12:22:29;6.43;;;2.15;;
52898;SDS011;38763;53.096;6.062;2022-07-29T12:25:05;5.93;;;2.03;;
52898;SDS011;38763;53.096;6.062;2022-07-29T12:27:34;10.40;;;2.10;;
52898;SDS011;38763;53.096;6.062;2022-07-29T12:30:01;8.38;;;2.50;;
52898;SDS011;38763;53.096;6.062;2022-07-29T12:32:40;6.95;;;2.10;;
52898;SDS011;38763;53.096;6.062;2022-07-29T12:35:14;7.32;;;2.03;;
52898;SDS011;38763;53.096;6.062;2022-07-29T12:37:41;6.95;;;2.22;;
52898;SDS011;38763;53.096;6.062;2022-07-29T12:40:10;10.63;;;2.20;;
52898;SDS011;38763;53.096;6.062;2022-07-29T12:42:37;8.32;;;2.40;;
52898;SDS011;38763;53.096;6.062;2022-07-29T12:45:03;6.63;;;2.53;;
52898;SDS011;38763;53.096;6.062;2022-07-29T12:47:30;5.63;;;2.20;;
52898;SDS011;38763;53.096;6.062;2022-07-29T12:50:10;13.15;;;2.42;;
52898;SDS011;38763;53.096;6.062;2022-07-29T12:52:40;4.30;;;1.90;;
52898;SDS011;38763;53.096;6.062;2022-07-29T12:55:06;9.23;;;2.55;;
52898;SDS011;38763;53.096;6.062;2022-07-29T12:57:32;8.07;;;2.70;;
52898;SDS011;38763;53.096;6.062;2022-07-29T13:00:09;9.43;;;2.42;;
52898;SDS011;38763;53.096;6.062;2022-07-29T13:02:38;11.73;;;2.50;;
52898;SDS011;38763;53.096;6.062;2022-07-29T13:05:05;8.13;;;2.28;;
52898;SDS011;38763;53.096;6.062;2022-07-29T13:07:33;4.55;;;2.20;;
52898;SDS011;38763;53.096;6.062;2022-07-29T13:15:34;8.93;;;1.85;;
52898;SDS011;38763;53.096;6.062;2022-07-29T13:18:01;4.50;;;1.80;;
52898;SDS011;38763;53.096;6.062;2022-07-29T13:20:27;6.97;;;2.30;;
52898;SDS011;38763;53.096;6.062;2022-07-29T13:23:00;15.35;;;3.60;;
52898;SDS011;38763;53.096;6.062;2022-07-29T13:25:27;6.93;;;2.80;;
52898;SDS011;38763;53.096;6.062;2022-07-29T13:27:54;7.93;;;2.38;;
52898;SDS011;38763;53.096;6.062;2022-07-29T13:30:21;6.70;;;2.40;;
52898;SDS011;38763;53.096;6.062;2022-07-29T13:32:47;7.38;;;2.45;;
52898;SDS011;38763;53.096;6.062;2022-07-29T13:35:13;5.43;;;2.38;;
52898;SDS011;38763;53.096;6.062;2022-07-29T13:37:39;4.40;;;2.03;;
52898;SDS011;38763;53.096;6.062;2022-07-29T13:40:05;6.43;;;2.03;;
52898;SDS011;38763;53.096;6.062;2022-07-29T13:42:33;5.72;;;2.25;;
52898;SDS011;38763;53.096;6.062;2022-07-29T13:44:59;5.07;;;2.10;;
52898;SDS011;38763;53.096;6.062;2022-07-29T13:47:25;9.35;;;2.40;;
52898;SDS011;38763;53.096;6.062;2022-07-29T13:49:51;7.10;;;1.98;;
52898;SDS011;38763;53.096;6.062;2022-07-29T13:52:18;6.90;;;2.40;;
52898;SDS011;38763;53.096;6.062;2022-07-29T13:54:44;6.45;;;2.20;;
52898;SDS011;38763;53.096;6.062;2022-07-29T13:57:10;5.90;;;2.50;;
52898;SDS011;38763;53.096;6.062;2022-07-29T13:59:37;6.07;;;2.03;;
52898;SDS011;38763;53.096;6.062;2022-07-29T14:02:04;5.15;;;2.10;;
52898;SDS011;38763;53.096;6.062;2022-07-29T14:04:30;7.18;;;2.70;;
52898;SDS011;38763;53.096;6.062;2022-07-29T14:06:56;6.15;;;2.45;;
52898;SDS011;38763;53.096;6.062;2022-07-29T14:09:22;5.32;;;2.33;;
52898;SDS011;38763;53.096;6.062;2022-07-29T14:11:48;11.52;;;2.20;;
52898;SDS011;38763;53.096;6.062;2022-07-29T14:14:15;7.47;;;2.08;;
52898;SDS011;38763;53.096;6.062;2022-07-29T14:16:40;6.18;;;2.33;;
52898;SDS011;38763;53.096;6.062;2022-07-29T14:19:06;4.78;;;2.30;;
52898;SDS011;38763;53.096;6.062;2022-07-29T14:21:32;7.45;;;2.10;;
52898;SDS011;38763;53.096;6.062;2022-07-29T14:23:58;6.03;;;1.90;;
52898;SDS011;38763;53.096;6.062;2022-07-29T14:26:23;6.35;;;2.40;;
52898;SDS011;38763;53.096;6.062;2022-07-29T14:28:49;4.70;;;2.03;;
52898;SDS011;38763;53.096;6.062;2022-07-29T14:31:15;7.47;;;2.10;;
52898;SDS011;38763;53.096;6.062;2022-07-29T14:33:41;4.63;;;2.10;;
52898;SDS011;38763;53.096;6.062;2022-07-29T14:36:07;6.35;;;1.90;;
52898;SDS011;38763;53.096;6.062;2022-07-29T14:38:34;5.88;;;1.88;;
52898;SDS011;38763;53.096;6.062;2022-07-29T14:41:00;8.52;;;1.90;;
52898;SDS011;38763;53.096;6.062;2022-07-29T14:43:26;4.57;;;1.90;;
52898;SDS011;38763;53.096;6.062;2022-07-29T14:45:51;4.10;;;2.00;;
52898;SDS011;38763;53.096;6.062;2022-07-29T14:48:20;7.30;;;2.08;;
52898;SDS011;38763;53.096;6.062;2022-07-29T14:50:45;4.78;;;1.95;;
52898;SDS011;38763;53.096;6.062;2022-07-29T14:53:11;6.72;;;2.08;;
52898;SDS011;38763;53.096;6.062;2022-07-29T14:55:38;6.40;;;2.17;;
52898;SDS011;38763;53.096;6.062;2022-07-29T14:58:04;5.13;;;2.00;;
52898;SDS011;38763;53.096;6.062;2022-07-29T15:00:30;6.47;;;2.13;;
52898;SDS011;38763;53.096;6.062;2022-07-29T15:02:57;6.60;;;2.03;;
52898;SDS011;38763;53.096;6.062;2022-07-29T15:05:24;7.78;;;1.90;;
52898;SDS011;38763;53.096;6.062;2022-07-29T15:07:50;6.10;;;2.08;;
52898;SDS011;38763;53.096;6.062;2022-07-29T15:10:16;8.23;;;2.30;;
52898;SDS011;38763;53.096;6.062;2022-07-29T15:12:41;6.55;;;1.83;;
52898;SDS011;38763;53.096;6.062;2022-07-29T15:15:07;7.47;;;2.35;;
52898;SDS011;38763;53.096;6.062;2022-07-29T15:17:33;9.35;;;1.88;;
52898;SDS011;38763;53.096;6.062;2022-07-29T15:19:59;8.07;;;2.10;;
52898;SDS011;38763;53.096;6.062;2022-07-29T15:22:25;8.23;;;2.10;;
52898;SDS011;38763;53.096;6.062;2022-07-29T15:24:50;7.72;;;1.98;;
52898;SDS011;38763;53.096;6.062;2022-07-29T15:27:16;4.15;;;1.80;;
52898;SDS011;38763;53.096;6.062;2022-07-29T15:29:42;6.50;;;2.00;;
52898;SDS011;38763;53.096;6.062;2022-07-29T15:32:08;6.47;;;2.15;;
52898;SDS011;38763;53.096;6.062;2022-07-29T15:34:35;5.53;;;2.05;;
52898;SDS011;38763;53.096;6.062;2022-07-29T15:37:01;6.88;;;1.98;;
52898;SDS011;38763;53.096;6.062;2022-07-29T15:39:27;6.05;;;1.80;;
52898;SDS011;38763;53.096;6.062;2022-07-29T15:41:53;4.70;;;2.10;;
52898;SDS011;38763;53.096;6.062;2022-07-29T15:44:19;6.10;;;1.90;;
52898;SDS011;38763;53.096;6.062;2022-07-29T15:46:45;7.38;;;2.33;;
52898;SDS011;38763;53.096;6.062;2022-07-29T15:49:33;7.75;;;1.80;;
52898;SDS011;38763;53.096;6.062;2022-07-29T15:52:01;7.07;;;1.88;;
52898;SDS011;38763;53.096;6.062;2022-07-29T15:54:30;6.43;;;1.60;;
52898;SDS011;38763;53.096;6.062;2022-07-29T15:56:56;6.47;;;1.90;;
52898;SDS011;38763;53.096;6.062;2022-07-29T15:59:22;3.83;;;1.58;;
52898;SDS011;38763;53.096;6.062;2022-07-29T16:01:50;5.85;;;1.67;;
52898;SDS011;38763;53.096;6.062;2022-07-29T16:04:16;4.20;;;1.88;;
52898;SDS011;38763;53.096;6.062;2022-07-29T16:06:45;12.90;;;2.03;;
52898;SDS011;38763;53.096;6.062;2022-07-29T16:09:11;4.18;;;1.92;;
52898;SDS011;38763;53.096;6.062;2022-07-29T16:11:38;4.80;;;1.58;;
52898;SDS011;38763;53.096;6.062;2022-07-29T16:14:04;4.68;;;1.55;;
52898;SDS011;38763;53.096;6.062;2022-07-29T16:16:29;5.30;;;1.75;;